createdAt,value
2023-12-08T00:01:34.830Z,2.41
2023-12-08T00:04:41.444Z,2.40
2023-12-08T00:07:47.875Z,2.46
2023-12-08T00:10:53.783Z,2.62
2023-12-08T00:13:59.543Z,2.48
2023-12-08T00:17:06.077Z,2.39
2023-12-08T00:20:13.132Z,2.49
2023-12-08T00:23:19.729Z,2.48
2023-12-08T00:26:27.161Z,2.52
2023-12-08T00:29:33.992Z,2.61
2023-12-08T00:32:40.602Z,2.68
2023-12-08T00:35:46.763Z,2.41
2023-12-08T00:38:52.899Z,2.52
2023-12-08T00:41:59.431Z,2.36
2023-12-08T00:45:05.648Z,2.43
2023-12-08T00:48:12.364Z,2.52
2023-12-08T00:51:18.733Z,2.40
2023-12-08T00:54:24.592Z,2.42
2023-12-08T00:57:33.012Z,2.54
2023-12-08T01:00:39.740Z,2.65
2023-12-08T01:03:46.249Z,2.69
2023-12-08T01:06:51.844Z,2.49
2023-12-08T01:09:58.472Z,2.53
2023-12-08T01:13:06.906Z,2.49
2023-12-08T01:16:15.179Z,2.43
2023-12-08T01:19:21.969Z,2.40
2023-12-08T01:22:31.992Z,2.39
2023-12-08T01:25:37.916Z,2.51
2023-12-08T01:28:43.051Z,2.51
2023-12-08T01:31:47.806Z,2.50
2023-12-08T01:34:53.578Z,2.34
2023-12-08T01:37:59.944Z,2.30
2023-12-08T01:41:05.308Z,2.27
2023-12-08T01:44:10.874Z,2.26
2023-12-08T01:47:17.094Z,2.30
2023-12-08T01:50:23.056Z,2.37
2023-12-08T01:53:29.355Z,2.29
2023-12-08T01:56:35.731Z,2.23
2023-12-08T01:59:42.230Z,2.29
2023-12-08T02:02:48.822Z,2.21
2023-12-08T02:05:59.566Z,2.21
2023-12-08T02:09:07.025Z,2.18
2023-12-08T02:12:06.762Z,2.15
2023-12-08T02:15:13.862Z,2.32
2023-12-08T02:18:20.113Z,2.19
2023-12-08T02:21:26.865Z,2.20
2023-12-08T02:24:32.832Z,2.30
2023-12-08T02:27:39.251Z,2.37
2023-12-08T02:30:45.627Z,2.26
2023-12-08T02:33:50.585Z,2.29
2023-12-08T02:36:55.672Z,2.24
2023-12-08T02:40:01.717Z,2.33
2023-12-08T02:43:09.704Z,2.27
2023-12-08T02:46:16.026Z,2.30
2023-12-08T02:49:22.633Z,2.40
2023-12-08T02:52:22.236Z,2.54
2023-12-08T02:55:08.746Z,2.61
2023-12-08T02:58:01.568Z,2.71
2023-12-08T03:00:53.958Z,2.84
2023-12-08T03:04:01.234Z,2.67
2023-12-08T03:07:08.712Z,2.68
2023-12-08T03:10:16.218Z,2.67
2023-12-08T03:13:22.481Z,2.51
2023-12-08T03:16:30.768Z,2.61
2023-12-08T03:23:31.697Z,2.64
2023-12-08T03:26:38.980Z,2.55
2023-12-08T03:29:50.576Z,2.81
2023-12-08T03:33:01.217Z,2.89
2023-12-08T03:36:11.471Z,2.72
2023-12-08T03:39:20.048Z,2.72
2023-12-08T03:42:21.311Z,2.76
2023-12-08T03:45:31.703Z,2.91
2023-12-08T03:48:53.461Z,3.00
2023-12-08T03:52:33.269Z,2.96
2023-12-08T03:55:41.185Z,3.20
2023-12-08T03:58:47.612Z,3.01
2023-12-08T04:01:54.012Z,2.95
2023-12-08T04:04:59.595Z,3.00
2023-12-08T04:08:06.204Z,3.05
2023-12-08T04:11:12.432Z,2.97
2023-12-08T04:14:17.812Z,3.02
2023-12-08T04:17:23.789Z,2.86
2023-12-08T04:20:31.163Z,3.05
2023-12-08T04:23:37.070Z,3.13
2023-12-08T04:26:43.064Z,2.94
2023-12-08T04:29:49.985Z,3.01
2023-12-08T04:32:56.474Z,3.10
2023-12-08T04:36:02.938Z,2.98
2023-12-08T04:39:09.276Z,3.02
2023-12-08T04:42:17.492Z,2.94
2023-12-08T04:45:24.400Z,3.02
2023-12-08T04:48:31.229Z,2.95
2023-12-08T04:51:37.627Z,2.98
2023-12-08T04:54:42.057Z,2.87
2023-12-08T04:57:47.926Z,2.99
2023-12-08T05:00:54.536Z,3.04
2023-12-08T05:04:00.749Z,3.09
2023-12-08T05:07:07.230Z,3.11
2023-12-08T05:10:13.847Z,3.14
2023-12-08T05:13:20.655Z,3.18
2023-12-08T05:16:27.141Z,3.24
2023-12-08T05:19:33.946Z,3.25
2023-12-08T05:22:40.322Z,3.16
2023-12-08T05:25:47.166Z,3.17
2023-12-08T05:28:54.111Z,2.87
2023-12-08T05:32:00.095Z,3.06
2023-12-08T05:35:07.059Z,2.94
2023-12-08T05:38:13.880Z,3.02
2023-12-08T05:41:21.010Z,2.99
2023-12-08T05:44:26.867Z,2.96
2023-12-08T05:47:32.695Z,3.13
2023-12-08T05:50:39.051Z,3.12
2023-12-08T05:53:45.988Z,3.01
2023-12-08T05:56:52.883Z,3.03
2023-12-08T05:59:59.661Z,3.11
2023-12-08T06:03:06.794Z,3.11
2023-12-08T06:06:14.253Z,3.11
2023-12-08T06:09:21.971Z,3.13
2023-12-08T06:12:22.592Z,3.20
2023-12-08T06:15:22.296Z,3.10
2023-12-08T06:18:29.394Z,3.07
2023-12-08T06:21:36.127Z,3.27
2023-12-08T06:24:42.662Z,3.16
2023-12-08T06:27:49.428Z,3.15
2023-12-08T06:30:55.258Z,3.23
2023-12-08T06:34:09.802Z,3.18
2023-12-08T06:37:09.563Z,3.08
2023-12-08T06:40:15.932Z,2.78
2023-12-08T06:43:22.757Z,2.71
2023-12-08T06:46:28.864Z,2.74
2023-12-08T06:49:35.477Z,2.62
2023-12-08T06:52:42.213Z,2.70
2023-12-08T06:55:49.027Z,2.76
2023-12-08T06:58:56.266Z,2.80
2023-12-08T07:02:03.812Z,2.80
2023-12-08T07:05:12.792Z,2.93
2023-12-08T07:08:18.537Z,2.91
2023-12-08T07:11:25.783Z,2.92
2023-12-08T07:14:32.788Z,2.91
2023-12-08T07:17:39.797Z,2.92
2023-12-08T07:20:46.011Z,2.92
2023-12-08T07:23:55.696Z,2.98
2023-12-08T07:27:03.254Z,2.99
2023-12-08T07:30:12.644Z,3.07
2023-12-08T07:33:19.328Z,3.04
2023-12-08T07:36:19.944Z,2.99
2023-12-08T07:39:14.703Z,3.01
2023-12-08T07:42:20.388Z,3.04
2023-12-08T07:45:27.886Z,3.11
2023-12-08T07:48:34.731Z,2.99
2023-12-08T07:51:41.843Z,3.00
2023-12-08T07:54:48.243Z,3.04
2023-12-08T07:57:54.688Z,2.98
2023-12-08T08:01:01.680Z,2.92
2023-12-08T08:04:08.159Z,2.85
2023-12-08T08:07:15.351Z,2.92
2023-12-08T08:10:22.904Z,2.92
2023-12-08T08:13:29.743Z,2.88
2023-12-08T08:16:36.350Z,3.04
2023-12-08T08:19:43.554Z,2.96
2023-12-08T08:22:50.827Z,3.05
2023-12-08T08:25:59.771Z,3.21
2023-12-08T08:29:06.537Z,3.07
2023-12-08T08:32:13.878Z,3.04
2023-12-08T08:35:23.479Z,3.11
2023-12-08T08:38:31.916Z,3.28
2023-12-08T08:41:39.602Z,3.37
2023-12-08T08:44:46.046Z,3.45
2023-12-08T08:47:53.052Z,3.52
2023-12-08T08:51:02.583Z,3.46
2023-12-08T08:54:10.539Z,3.35
2023-12-08T08:57:16.902Z,3.37
2023-12-08T09:00:26.710Z,3.38
2023-12-08T09:03:33.440Z,3.16
2023-12-08T09:06:40.537Z,3.06
2023-12-08T09:16:44.286Z,3.22
2023-12-08T09:23:16.608Z,3.20
2023-12-08T09:26:31.660Z,3.10
2023-12-08T09:44:36.032Z,2.88
2023-12-08T09:47:56.827Z,2.85
2023-12-08T09:55:28.519Z,3.04
2023-12-08T10:13:50.444Z,3.35
2023-12-08T10:17:01.522Z,3.27
2023-12-08T10:20:37.955Z,3.13
2023-12-08T10:23:48.506Z,3.12
2023-12-08T10:26:55.846Z,3.26
2023-12-08T10:33:37.710Z,3.38
2023-12-08T10:37:44.052Z,3.30
2023-12-08T10:45:00.727Z,3.45
2023-12-08T10:48:30.305Z,3.50
2023-12-08T10:51:40.837Z,3.49
2023-12-08T10:55:06.358Z,3.45
2023-12-08T10:58:39.043Z,3.47
2023-12-08T11:02:03.389Z,3.52
2023-12-08T11:05:41.831Z,3.27
2023-12-08T11:08:59.403Z,3.36
2023-12-08T11:12:14.620Z,3.32
2023-12-08T11:15:26.940Z,3.31
2023-12-08T11:18:43.401Z,3.46
2023-12-08T11:21:55.282Z,3.55
2023-12-08T11:25:05.667Z,3.51
2023-12-08T11:28:35.186Z,3.62
2023-12-08T11:32:06.830Z,3.50
2023-12-08T11:35:27.635Z,3.54
2023-12-08T11:38:47.570Z,3.41
2023-12-08T11:42:03.425Z,3.41
2023-12-08T11:45:14.115Z,3.49
2023-12-08T11:48:27.530Z,3.17
2023-12-08T11:51:36.077Z,3.09
2023-12-08T11:54:45.387Z,3.13
2023-12-08T11:57:57.881Z,3.10
2023-12-08T12:01:05.966Z,3.05
2023-12-08T12:04:14.633Z,3.05
2023-12-08T12:07:27.105Z,3.04
2023-12-08T12:10:42.722Z,3.01
2023-12-08T12:13:50.916Z,2.85
2023-12-08T12:16:58.193Z,2.89
2023-12-08T12:20:08.753Z,3.00
2023-12-08T12:23:17.423Z,2.97
2023-12-08T12:26:26.161Z,2.89
2023-12-08T12:29:35.914Z,3.01
2023-12-08T12:32:42.985Z,3.18
2023-12-08T12:35:54.330Z,3.15
2023-12-08T12:39:00.324Z,3.12
2023-12-08T12:42:13.876Z,3.01
2023-12-08T12:45:21.660Z,2.99
2023-12-08T12:48:38.547Z,3.02
2023-12-08T12:51:53.593Z,2.94
2023-12-08T12:54:59.097Z,3.32
2023-12-08T12:58:06.721Z,3.18
2023-12-08T13:01:29.074Z,3.06
2023-12-08T13:04:44.085Z,3.04
2023-12-08T13:07:54.433Z,3.07
2023-12-08T13:11:04.703Z,3.14
2023-12-08T13:14:16.527Z,3.22
2023-12-08T13:17:36.144Z,3.13
2023-12-08T13:20:43.161Z,3.05
2023-12-08T13:23:50.320Z,3.17
2023-12-08T13:26:55.842Z,3.01
2023-12-08T13:30:04.060Z,2.97
2023-12-08T13:33:10.781Z,3.16
2023-12-08T13:36:41.987Z,3.19
2023-12-08T13:40:07.579Z,3.00
2023-12-08T13:43:15.633Z,2.99
2023-12-08T13:46:22.729Z,3.14
2023-12-08T13:49:28.994Z,3.14
2023-12-08T13:52:35.421Z,3.13
2023-12-08T13:55:42.091Z,3.14
2023-12-08T13:58:47.517Z,3.01
2023-12-08T14:01:53.701Z,2.90
2023-12-08T14:05:00.330Z,2.88
2023-12-08T14:08:07.504Z,2.93
2023-12-08T14:11:16.418Z,2.99
2023-12-08T14:14:22.639Z,2.88
2023-12-08T14:17:28.814Z,2.78
2023-12-08T14:20:34.320Z,2.79
2023-12-08T14:23:40.155Z,2.80
2023-12-08T14:27:25.109Z,2.80
2023-12-08T14:30:42.386Z,2.57
2023-12-08T14:38:14.792Z,2.61
2023-12-08T14:41:20.841Z,2.44
2023-12-08T14:44:27.341Z,2.32
2023-12-08T14:47:35.046Z,2.33
2023-12-08T14:50:41.531Z,2.46
2023-12-08T14:53:47.587Z,2.51
2023-12-08T14:56:59.060Z,2.44
2023-12-08T15:00:06.014Z,2.33
2023-12-08T15:03:13.664Z,2.38
2023-12-08T15:06:20.575Z,2.40
2023-12-08T15:09:26.816Z,2.38
2023-12-08T15:12:33.335Z,2.28
2023-12-08T15:15:45.966Z,2.32
2023-12-08T15:18:46.545Z,2.40
2023-12-08T15:21:56.546Z,2.54
2023-12-08T15:25:01.390Z,2.41
2023-12-08T15:28:06.925Z,2.46
2023-12-08T15:31:12.763Z,2.33
2023-12-08T15:34:19.650Z,2.32
2023-12-08T15:37:26.093Z,2.41
2023-12-08T15:40:32.000Z,2.62
2023-12-08T15:43:38.824Z,2.53
2023-12-08T15:46:46.145Z,2.56
2023-12-08T15:49:53.376Z,2.56
2023-12-08T15:53:00.166Z,2.80
2023-12-08T15:56:06.443Z,2.68
2023-12-08T15:59:13.338Z,2.67
2023-12-08T16:02:19.930Z,2.69
2023-12-08T16:05:25.432Z,2.58
2023-12-08T16:09:07.363Z,2.63
2023-12-08T16:12:16.183Z,2.96
2023-12-08T16:15:32.394Z,3.29
2023-12-08T16:18:39.851Z,3.12
2023-12-08T16:21:47.122Z,2.77
2023-12-08T16:24:59.804Z,2.95
2023-12-08T16:28:06.010Z,2.86
2023-12-08T16:31:12.466Z,2.99
2023-12-08T16:34:18.724Z,2.90
2023-12-08T16:37:24.964Z,2.87
2023-12-08T16:40:30.627Z,3.00
2023-12-08T16:43:37.528Z,2.96
2023-12-08T16:46:44.318Z,2.92
2023-12-08T16:49:50.602Z,3.09
2023-12-08T16:52:59.075Z,2.97
2023-12-08T16:56:05.972Z,3.00
2023-12-08T16:59:12.177Z,3.00
2023-12-08T17:02:19.351Z,3.01
2023-12-08T17:05:25.598Z,3.21
2023-12-08T17:08:31.730Z,3.18
2023-12-08T17:11:37.957Z,3.17
2023-12-08T17:14:44.689Z,2.97
2023-12-08T17:17:51.729Z,2.99
2023-12-08T17:20:58.377Z,3.00
2023-12-08T17:24:05.240Z,2.95
2023-12-08T17:27:11.253Z,3.00
2023-12-08T17:30:17.165Z,3.09
2023-12-08T17:33:23.992Z,3.15
2023-12-08T17:36:31.007Z,3.20
2023-12-08T17:39:36.851Z,3.08
2023-12-08T17:42:42.942Z,3.17
2023-12-08T17:45:49.524Z,3.08
2023-12-08T17:48:56.046Z,3.00
2023-12-08T17:52:03.761Z,3.12
2023-12-08T17:55:13.803Z,2.95
2023-12-08T17:58:20.439Z,3.08
2023-12-08T18:01:26.580Z,3.05
2023-12-08T18:04:33.259Z,3.23
2023-12-08T18:07:40.511Z,2.91
2023-12-08T18:10:47.135Z,2.82
2023-12-08T18:13:54.072Z,2.85
2023-12-08T18:17:00.250Z,2.83
2023-12-08T18:20:08.215Z,2.89
2023-12-08T18:23:21.582Z,2.86
2023-12-08T18:26:31.632Z,2.98
2023-12-08T18:29:37.907Z,2.98
2023-12-08T18:32:43.499Z,2.92
2023-12-08T18:35:49.885Z,2.93
2023-12-08T18:38:56.011Z,2.87
2023-12-08T18:42:03.008Z,2.80
2023-12-08T18:45:12.856Z,2.80
2023-12-08T18:48:20.452Z,2.81
2023-12-08T18:51:27.849Z,2.76
2023-12-08T18:54:35.229Z,2.86
2023-12-08T18:57:41.034Z,2.98
2023-12-08T19:00:48.974Z,2.85
2023-12-08T19:03:56.204Z,2.81
2023-12-08T19:07:02.752Z,2.96
2023-12-08T19:10:08.973Z,3.12
2023-12-08T19:13:14.745Z,3.07
2023-12-08T19:16:21.295Z,3.13
2023-12-08T19:19:28.999Z,3.22
2023-12-08T19:22:34.411Z,3.34
2023-12-08T19:25:41.059Z,3.33
2023-12-08T19:28:47.623Z,3.41
2023-12-08T19:31:54.757Z,3.36
2023-12-08T19:35:01.068Z,3.18
2023-12-08T19:38:06.920Z,3.24
2023-12-08T19:41:13.322Z,3.24
2023-12-08T19:44:18.809Z,3.20
2023-12-08T19:47:24.483Z,3.15
2023-12-08T19:50:31.404Z,3.09
2023-12-08T19:53:37.333Z,3.10
2023-12-08T19:56:44.691Z,3.10
2023-12-08T19:59:50.991Z,3.17
2023-12-08T20:02:58.418Z,3.16
2023-12-08T20:06:05.606Z,3.33
2023-12-08T20:09:11.628Z,3.39
2023-12-08T20:12:18.496Z,3.48
2023-12-08T20:15:28.259Z,3.46
2023-12-08T20:18:33.046Z,3.40
2023-12-08T20:21:39.228Z,3.37
2023-12-08T20:24:45.245Z,3.28
2023-12-08T20:27:53.906Z,3.37
2023-12-08T20:30:59.829Z,3.37
2023-12-08T20:34:07.565Z,3.28
2023-12-08T20:37:13.789Z,3.40
2023-12-08T20:40:22.195Z,3.49
2023-12-08T20:43:29.825Z,3.34
2023-12-08T20:46:36.575Z,3.39
2023-12-08T20:49:43.007Z,3.33
2023-12-08T20:52:49.777Z,3.29
2023-12-08T20:55:55.471Z,3.46
2023-12-08T20:59:01.628Z,3.37
2023-12-08T21:02:08.105Z,3.24
2023-12-08T21:05:16.093Z,3.36
2023-12-08T21:08:22.296Z,3.49
2023-12-08T21:11:29.412Z,3.60
2023-12-08T21:14:35.526Z,3.68
2023-12-08T21:17:42.220Z,3.54
2023-12-08T21:20:48.442Z,3.72
2023-12-08T21:23:54.747Z,3.72
2023-12-08T21:27:01.218Z,3.71
2023-12-08T21:30:07.735Z,3.45
2023-12-08T21:33:13.933Z,3.61
2023-12-08T21:36:21.295Z,3.56
2023-12-08T21:39:27.680Z,3.58
2023-12-08T21:42:34.282Z,3.51
2023-12-08T21:45:41.362Z,3.48
2023-12-08T21:48:51.645Z,3.41
2023-12-08T21:51:58.439Z,3.50
2023-12-08T21:55:03.819Z,3.55
2023-12-08T21:58:09.662Z,3.57
2023-12-08T22:01:15.380Z,3.47
2023-12-08T22:04:21.568Z,3.31
2023-12-08T22:07:28.372Z,3.33
2023-12-08T22:10:34.846Z,3.43
2023-12-08T22:13:40.467Z,3.32
2023-12-08T22:16:45.928Z,3.40
2023-12-08T22:19:52.614Z,3.34
2023-12-08T22:23:00.046Z,3.61
2023-12-08T22:26:08.225Z,3.33
2023-12-08T22:29:13.734Z,3.52
2023-12-08T22:32:20.532Z,3.33
2023-12-08T22:35:26.229Z,3.17
2023-12-08T22:38:32.096Z,3.11
2023-12-08T22:41:38.523Z,3.02
2023-12-08T22:44:44.165Z,3.10
2023-12-08T22:47:50.589Z,3.13
2023-12-08T22:51:04.122Z,3.23
2023-12-08T22:54:05.255Z,3.39
2023-12-08T22:57:11.436Z,3.33
2023-12-08T23:00:20.410Z,3.44
2023-12-08T23:03:26.232Z,3.46
2023-12-08T23:06:32.419Z,3.50
2023-12-08T23:09:39.393Z,3.59
2023-12-08T23:12:45.105Z,3.71
2023-12-08T23:15:51.236Z,3.72
2023-12-08T23:18:57.550Z,3.74
2023-12-08T23:22:04.336Z,3.72
2023-12-08T23:25:12.061Z,3.62
2023-12-08T23:28:18.417Z,3.49
2023-12-08T23:31:25.040Z,3.42
2023-12-08T23:34:32.460Z,3.51
2023-12-08T23:37:39.400Z,3.43
2023-12-08T23:40:46.292Z,3.29
2023-12-08T23:43:54.190Z,3.32
2023-12-08T23:47:00.360Z,3.35
2023-12-08T23:50:09.009Z,3.51
2023-12-08T23:53:14.414Z,3.51
2023-12-08T23:56:23.736Z,3.44
2023-12-08T23:59:29.125Z,3.24
